Time;durP1;ratioP1;P1;durP2;ratioP2;P2;SDS_P1;SDS_P2;PMS_P1;PMS_P2;Temp;Humidity;BMP_temperature;BMP_pressure;BME280_temperature;BME280_humidity;BME280_pressure;Samples;Min_cycle;Max_cycle;Signal;HPM_P1;HPM_P2
2022/08/21 00:01:32;;;;;;;5.60;1.85;;;;;;;;;;5031769;28;20045;-63
2022/08/21 00:04:03;;;;;;;4.25;2.00;;;;;;;;;;5031256;28;20462;-63
2022/08/21 00:06:29;;;;;;;4.72;1.50;;;;;;;;;;5031773;28;20080;-63
2022/08/21 00:08:56;;;;;;;6.82;1.90;;;;;;;;;;5032080;28;20110;-63
2022/08/21 00:11:22;;;;;;;5.18;1.75;;;;;;;;;;5032233;28;20076;-63
2022/08/21 00:13:49;;;;;;;7.57;2.10;;;;;;;;;;5031746;28;20551;-63
2022/08/21 00:16:15;;;;;;;5.75;1.92;;;;;;;;;;5031603;28;20282;-63
2022/08/21 00:18:42;;;;;;;6.22;1.80;;;;;;;;;;5032107;28;20099;-64
2022/08/21 00:21:10;;;;;;;6.50;2.05;;;;;;;;;;5031893;28;20083;-64
2022/08/21 00:23:37;;;;;;;7.30;2.03;;;;;;;;;;5031536;28;20092;-64
2022/08/21 00:26:03;;;;;;;6.93;2.47;;;;;;;;;;5031602;28;20091;-64
2022/08/21 00:28:30;;;;;;;5.15;1.98;;;;;;;;;;5031842;28;20148;-63
2022/08/21 00:30:57;;;;;;;7.95;1.98;;;;;;;;;;5030210;28;20091;-64
2022/08/21 00:33:24;;;;;;;5.53;2.30;;;;;;;;;;5031612;28;20085;-64
2022/08/21 00:35:50;;;;;;;9.03;2.27;;;;;;;;;;5031390;28;20505;-64
2022/08/21 00:38:17;;;;;;;6.40;1.93;;;;;;;;;;5031740;28;20103;-64
2022/08/21 00:40:43;;;;;;;5.47;1.63;;;;;;;;;;5031514;28;20085;-63
2022/08/21 00:43:11;;;;;;;7.43;2.13;;;;;;;;;;5031945;28;20053;-64
2022/08/21 00:45:38;;;;;;;7.70;2.45;;;;;;;;;;5029919;28;20088;-63
2022/08/21 00:48:04;;;;;;;7.13;1.60;;;;;;;;;;5031607;28;20080;-64
2022/08/21 00:50:33;;;;;;;9.15;2.05;;;;;;;;;;5031355;28;20050;-63
2022/08/21 00:53:00;;;;;;;9.38;2.55;;;;;;;;;;5029994;28;20045;-64
2022/08/21 00:55:27;;;;;;;8.00;2.38;;;;;;;;;;5031639;28;20073;-64
2022/08/21 00:57:58;;;;;;;8.07;1.75;;;;;;;;;;5031293;28;20045;-63
2022/08/21 01:00:31;;;;;;;6.88;2.10;;;;;;;;;;5031277;28;20038;-63
2022/08/21 01:02:58;;;;;;;6.13;2.05;;;;;;;;;;5031487;28;20089;-64
2022/08/21 01:05:26;;;;;;;6.93;1.75;;;;;;;;;;5031454;28;20056;-63
2022/08/21 01:07:52;;;;;;;;;;;;;;;;;;5031945;28;20084;-63
2022/08/21 01:10:19;;;;;;;10.57;2.53;;;;;;;;;;5031244;28;19921;-63
2022/08/21 01:12:51;;;;;;;7.38;2.17;;;;;;;;;;5031363;28;20074;-63
2022/08/21 01:15:18;;;;;;;7.88;2.58;;;;;;;;;;5033007;28;20045;-63
2022/08/21 01:17:44;;;;;;;9.27;2.03;;;;;;;;;;5035049;28;20053;-64
2022/08/21 01:20:11;;;;;;;5.78;1.70;;;;;;;;;;5035167;28;20076;-64
2022/08/21 01:22:38;;;;;;;7.60;1.92;;;;;;;;;;5033769;28;20076;-63
2022/08/21 01:25:05;;;;;;;7.55;2.03;;;;;;;;;;5035181;28;20465;-63
2022/08/21 01:27:32;;;;;;;10.80;2.10;;;;;;;;;;5034614;28;20049;-64
2022/08/21 01:30:09;;;;;;;7.47;1.90;;;;;;;;;;5034380;28;20085;-64
2022/08/21 01:32:36;;;;;;;;;;;;;;;;;;5034985;28;20489;-64
2022/08/21 01:35:03;;;;;;;5.13;1.73;;;;;;;;;;5034655;28;20297;-64
2022/08/21 01:37:29;;;;;;;7.32;2.17;;;;;;;;;;5034851;28;20077;-64
2022/08/21 01:39:56;;;;;;;7.35;2.28;;;;;;;;;;5034545;28;20073;-64
2022/08/21 01:42:22;;;;;;;7.13;1.75;;;;;;;;;;5034777;28;20080;-64
2022/08/21 01:44:49;;;;;;;7.20;1.55;;;;;;;;;;5032663;28;20131;-63
2022/08/21 01:47:19;;;;;;;6.75;1.75;;;;;;;;;;5031930;28;20045;-64
2022/08/21 01:49:46;;;;;;;10.32;2.17;;;;;;;;;;5032679;28;20072;-64
2022/08/21 01:52:12;;;;;;;7.65;1.83;;;;;;;;;;5034309;28;20095;-63
2022/08/21 01:54:39;;;;;;;9.27;2.08;;;;;;;;;;5034510;28;20076;-64
2022/08/21 01:57:05;;;;;;;6.32;1.55;;;;;;;;;;5034211;28;20086;-64
2022/08/21 01:59:34;;;;;;;6.50;1.58;;;;;;;;;;5034101;28;20452;-64
2022/08/21 02:02:00;;;;;;;5.70;2.20;;;;;;;;;;5034420;28;20077;-64
2022/08/21 02:04:27;;;;;;;5.57;1.70;;;;;;;;;;5034370;28;20050;-63
2022/08/21 02:06:53;;;;;;;7.03;1.60;;;;;;;;;;5034657;28;20049;-63
2022/08/21 02:09:21;;;;;;;7.88;1.90;;;;;;;;;;5034004;28;20084;-64
2022/08/21 02:11:49;;;;;;;8.15;2.05;;;;;;;;;;5034206;28;20045;-63
2022/08/21 02:14:16;;;;;;;9.90;1.63;;;;;;;;;;5034188;28;20448;-64
2022/08/21 02:16:58;;;;;;;9.25;2.00;;;;;;;;;;5031813;28;20096;-63
2022/08/21 02:19:34;;;;;;;5.57;1.92;;;;;;;;;;5034148;28;20046;-61
2022/08/21 02:22:06;;;;;;;12.77;1.98;;;;;;;;;;5033731;28;20128;-62
2022/08/21 02:24:33;;;;;;;6.72;2.00;;;;;;;;;;5034123;28;20061;-61
2022/08/21 02:26:59;;;;;;;9.82;1.83;;;;;;;;;;5032992;28;20046;-61
2022/08/21 02:29:25;;;;;;;7.00;1.98;;;;;;;;;;5033884;28;20081;-61
2022/08/21 02:31:52;;;;;;;9.75;1.85;;;;;;;;;;5033614;28;20050;-62
2022/08/21 02:34:19;;;;;;;11.63;2.60;;;;;;;;;;5033372;28;20452;-62
2022/08/21 02:36:46;;;;;;;9.98;2.33;;;;;;;;;;5033523;28;20528;-62
2022/08/21 02:39:25;;;;;;;10.43;2.45;;;;;;;;;;5033440;28;20038;-62
2022/08/21 02:41:52;;;;;;;7.00;1.70;;;;;;;;;;5032535;28;20413;-62
2022/08/21 02:44:19;;;;;;;10.93;2.15;;;;;;;;;;5033561;28;20468;-62
2022/08/21 02:46:45;;;;;;;7.30;1.63;;;;;;;;;;5033310;28;20089;-62
2022/08/21 02:49:11;;;;;;;7.28;1.50;;;;;;;;;;5032017;28;20876;-62
2022/08/21 02:51:39;;;;;;;9.48;2.13;;;;;;;;;;5032960;28;20489;-62
2022/08/21 02:54:06;;;;;;;11.10;2.22;;;;;;;;;;5033032;28;20504;-62
2022/08/21 02:56:32;;;;;;;10.02;1.75;;;;;;;;;;5033293;28;20073;-62
2022/08/21 02:58:59;;;;;;;7.47;1.75;;;;;;;;;;5033532;28;20077;-62
2022/08/21 03:01:26;;;;;;;10.80;2.17;;;;;;;;;;5033355;28;20072;-62
2022/08/21 03:03:53;;;;;;;6.30;1.92;;;;;;;;;;5033076;28;20128;-62
2022/08/21 03:06:20;;;;;;;8.27;1.52;;;;;;;;;;5033159;28;20053;-61
2022/08/21 03:08:47;;;;;;;8.48;1.98;;;;;;;;;;5032783;28;20548;-61
2022/08/21 03:11:14;;;;;;;7.70;2.20;;;;;;;;;;5033192;28;20454;-64
2022/08/21 03:13:41;;;;;;;8.43;1.67;;;;;;;;;;5032677;28;20056;-62
2022/08/21 03:16:08;;;;;;;8.57;1.70;;;;;;;;;;5033023;28;20497;-62
2022/08/21 03:18:35;;;;;;;6.80;2.55;;;;;;;;;;5032468;28;20065;-63
2022/08/21 03:21:02;;;;;;;;;;;;;;;;;;5033292;28;20049;-63
2022/08/21 03:23:30;;;;;;;9.68;2.05;;;;;;;;;;5032908;28;19920;-62
2022/08/21 03:25:57;;;;;;;8.65;2.47;;;;;;;;;;5032882;28;20049;-63
2022/08/21 03:28:24;;;;;;;8.30;1.73;;;;;;;;;;5032478;28;20053;-63
2022/08/21 03:30:51;;;;;;;7.47;1.98;;;;;;;;;;5032745;28;20081;-63
2022/08/21 03:33:19;;;;;;;7.68;1.90;;;;;;;;;;5032599;28;20106;-62
2022/08/21 03:35:45;;;;;;;;;;;;;;;;;;5032793;28;20564;-63
2022/08/21 03:38:12;;;;;;;8.73;2.10;;;;;;;;;;5032067;28;19921;-63
2022/08/21 03:40:39;;;;;;;11.70;2.28;;;;;;;;;;5030571;28;20049;-62
2022/08/21 03:43:08;;;;;;;9.93;2.25;;;;;;;;;;5032599;28;20092;-62
2022/08/21 03:45:35;;;;;;;11.75;2.35;;;;;;;;;;5032615;28;20057;-62
2022/08/21 03:48:03;;;;;;;10.05;2.00;;;;;;;;;;5031031;28;20480;-62
2022/08/21 03:50:30;;;;;;;5.03;1.52;;;;;;;;;;5032205;28;20092;-62
2022/08/21 03:53:00;;;;;;;6.13;1.90;;;;;;;;;;5032079;28;20120;-63
2022/08/21 03:55:26;;;;;;;6.75;1.80;;;;;;;;;;5032136;28;20049;-63
2022/08/21 03:57:53;;;;;;;9.98;2.33;;;;;;;;;;5032035;28;20497;-63
2022/08/21 04:00:20;;;;;;;7.13;1.67;;;;;;;;;;5032209;28;20452;-63
2022/08/21 04:02:47;;;;;;;9.10;2.10;;;;;;;;;;5030956;28;20421;-63
2022/08/21 04:05:26;;;;;;;8.55;1.75;;;;;;;;;;5031870;28;20093;-62
2022/08/21 04:07:57;;;;;;;7.28;1.73;;;;;;;;;;5032178;28;20053;-63
2022/08/21 04:10:24;;;;;;;10.35;2.22;;;;;;;;;;5032069;28;20092;-63
2022/08/21 04:12:51;;;;;;;8.13;2.35;;;;;;;;;;5031890;28;20073;-62
2022/08/21 04:15:18;;;;;;;7.43;2.08;;;;;;;;;;5030484;28;20077;-63
2022/08/21 04:17:44;;;;;;;7.53;1.83;;;;;;;;;;5031752;28;20049;-62
2022/08/21 04:20:12;;;;;;;10.18;2.00;;;;;;;;;;5031797;28;20080;-63
2022/08/21 04:22:38;;;;;;;;;;;;;;;;;;5031982;28;20485;-63
2022/08/21 04:25:07;;;;;;;7.17;2.30;;;;;;;;;;5031895;28;20008;-63
2022/08/21 04:27:34;;;;;;;10.98;2.10;;;;;;;;;;5031543;28;20053;-62
2022/08/21 04:30:00;;;;;;;9.63;2.20;;;;;;;;;;5031467;28;20559;-63
2022/08/21 04:32:27;;;;;;;7.35;1.75;;;;;;;;;;5031781;28;20050;-63
2022/08/21 04:35:01;;;;;;;8.45;1.98;;;;;;;;;;5030314;28;20137;-62
2022/08/21 04:37:27;;;;;;;5.28;1.42;;;;;;;;;;5031409;28;20103;-62
2022/08/21 04:39:56;;;;;;;6.60;1.83;;;;;;;;;;5031939;28;20095;-62
2022/08/21 04:42:23;;;;;;;8.95;1.73;;;;;;;;;;5031610;28;20041;-62
2022/08/21 04:44:50;;;;;;;9.02;2.20;;;;;;;;;;5031356;28;20084;-62
2022/08/21 04:47:17;;;;;;;3.40;1.40;;;;;;;;;;5031316;28;20076;-63
2022/08/21 04:49:44;;;;;;;7.70;1.15;;;;;;;;;;5033805;28;20049;-62
2022/08/21 04:52:11;;;;;;;6.55;1.98;;;;;;;;;;5035314;28;20555;-63
2022/08/21 04:54:38;;;;;;;6.75;1.83;;;;;;;;;;5034435;28;20482;-63
2022/08/21 04:57:07;;;;;;;7.63;1.77;;;;;;;;;;5034420;28;20448;-63
2022/08/21 04:59:37;;;;;;;8.32;1.65;;;;;;;;;;5035609;28;20127;-62
2022/08/21 05:02:05;;;;;;;7.40;1.95;;;;;;;;;;5035357;28;20045;-62
2022/08/21 05:04:32;;;;;;;6.47;1.83;;;;;;;;;;5035218;28;20072;-62
2022/08/21 05:07:03;;;;;;;10.23;1.88;;;;;;;;;;5035492;28;20378;-62
2022/08/21 05:09:30;;;;;;;7.57;2.00;;;;;;;;;;5035536;28;20087;-62
2022/08/21 05:11:58;;;;;;;4.60;1.77;;;;;;;;;;5035431;28;20402;-63
2022/08/21 05:14:27;;;;;;;5.90;1.73;;;;;;;;;;5035026;28;20306;-62
2022/08/21 05:16:53;;;;;;;8.88;1.67;;;;;;;;;;5035053;28;20072;-62
2022/08/21 05:19:19;;;;;;;8.18;1.73;;;;;;;;;;5035165;28;20099;-62
2022/08/21 05:21:47;;;;;;;7.10;1.73;;;;;;;;;;5035276;28;20049;-63
2022/08/21 05:24:14;;;;;;;6.05;1.65;;;;;;;;;;5035068;28;20100;-62
2022/08/21 05:26:40;;;;;;;8.27;2.10;;;;;;;;;;5034908;28;20092;-63
2022/08/21 05:29:14;;;;;;;7.70;2.05;;;;;;;;;;5033564;28;20053;-62
2022/08/21 05:31:41;;;;;;;7.65;1.83;;;;;;;;;;5034805;28;20468;-62
2022/08/21 05:34:08;;;;;;;11.00;1.75;;;;;;;;;;5034888;28;20505;-62
2022/08/21 05:36:35;;;;;;;9.10;2.53;;;;;;;;;;5035138;28;20136;-63
2022/08/21 05:39:02;;;;;;;7.93;1.90;;;;;;;;;;5034715;28;20076;-63
2022/08/21 05:41:28;;;;;;;7.87;1.73;;;;;;;;;;5034470;28;20531;-63
2022/08/21 05:43:55;;;;;;;10.43;1.77;;;;;;;;;;5034468;28;20567;-63
2022/08/21 05:46:22;;;;;;;6.78;1.52;;;;;;;;;;5034428;28;20104;-62
2022/08/21 05:48:48;;;;;;;8.10;1.60;;;;;;;;;;5034692;28;20069;-63
2022/08/21 05:51:15;;;;;;;9.73;2.08;;;;;;;;;;5034355;28;20053;-62
2022/08/21 05:53:42;;;;;;;7.85;2.17;;;;;;;;;;5034329;28;20117;-63
2022/08/21 05:56:08;;;;;;;10.68;2.47;;;;;;;;;;5034331;28;20049;-63
2022/08/21 05:58:35;;;;;;;9.33;1.93;;;;;;;;;;5034162;28;20077;-63
2022/08/21 06:01:02;;;;;;;5.55;1.70;;;;;;;;;;5034023;28;20080;-63
2022/08/21 06:03:30;;;;;;;8.05;1.67;;;;;;;;;;5034220;28;20490;-63
2022/08/21 06:05:56;;;;;;;8.95;2.10;;;;;;;;;;5034316;28;20081;-63
2022/08/21 06:08:23;;;;;;;6.15;2.05;;;;;;;;;;5034345;28;20049;-63
2022/08/21 06:10:50;;;;;;;7.37;2.00;;;;;;;;;;5034257;28;20528;-62
2022/08/21 06:13:18;;;;;;;6.65;1.75;;;;;;;;;;5033870;28;20578;-63
2022/08/21 06:15:44;;;;;;;8.00;2.33;;;;;;;;;;5034404;28;20072;-63
2022/08/21 06:18:11;;;;;;;13.55;2.38;;;;;;;;;;5033848;28;20458;-63
2022/08/21 06:20:39;;;;;;;10.98;2.53;;;;;;;;;;5034103;28;20050;-63
2022/08/21 06:23:05;;;;;;;10.55;2.08;;;;;;;;;;5034037;28;20045;-63
2022/08/21 06:25:32;;;;;;;8.98;2.17;;;;;;;;;;5033998;28;20053;-63
2022/08/21 06:28:03;;;;;;;6.90;1.50;;;;;;;;;;5033947;28;20069;-62
2022/08/21 06:30:29;;;;;;;6.53;1.60;;;;;;;;;;5032458;28;20080;-63
2022/08/21 06:32:56;;;;;;;7.50;1.53;;;;;;;;;;5033893;28;20088;-62
2022/08/21 06:35:24;;;;;;;8.33;1.70;;;;;;;;;;5033540;28;20052;-63
2022/08/21 06:37:50;;;;;;;7.95;1.58;;;;;;;;;;5032324;28;20497;-62
2022/08/21 06:40:17;;;;;;;8.05;2.28;;;;;;;;;;5033818;28;20049;-62
2022/08/21 06:42:43;;;;;;;5.90;1.63;;;;;;;;;;5033411;28;20497;-62
2022/08/21 06:45:12;;;;;;;8.05;1.85;;;;;;;;;;5033431;28;20103;-63
2022/08/21 06:47:39;;;;;;;7.22;1.88;;;;;;;;;;5033456;28;20080;-63
2022/08/21 06:50:07;;;;;;;8.30;1.85;;;;;;;;;;5033389;28;20151;-63
2022/08/21 06:52:34;;;;;;;8.30;1.70;;;;;;;;;;5033193;28;20358;-63
2022/08/21 06:55:02;;;;;;;9.45;1.80;;;;;;;;;;5033477;28;20402;-63
2022/08/21 06:57:28;;;;;;;9.70;1.70;;;;;;;;;;5033069;28;20080;-63
2022/08/21 06:59:55;;;;;;;6.63;1.63;;;;;;;;;;5033161;28;20080;-63
2022/08/21 07:02:21;;;;;;;7.00;1.73;;;;;;;;;;5032450;28;20107;-63
2022/08/21 07:04:48;;;;;;;7.20;1.63;;;;;;;;;;5024215;28;20049;-63
2022/08/21 07:07:14;;;;;;;6.97;1.90;;;;;;;;;;5032666;28;20053;-62
2022/08/21 07:09:41;;;;;;;7.95;1.65;;;;;;;;;;5032761;28;20084;-63
2022/08/21 07:12:07;;;;;;;4.97;1.70;;;;;;;;;;5031695;28;20540;-63
2022/08/21 07:14:34;;;;;;;7.33;2.33;;;;;;;;;;5032526;28;20041;-63
2022/08/21 07:17:00;;;;;;;7.82;1.85;;;;;;;;;;5032422;28;20080;-63
2022/08/21 07:19:27;;;;;;;8.83;3.47;;;;;;;;;;5030182;28;20049;-63
2022/08/21 07:21:56;;;;;;;9.65;3.90;;;;;;;;;;5032176;28;20494;-62
2022/08/21 07:24:23;;;;;;;9.35;3.33;;;;;;;;;;5032037;28;20084;-62
2022/08/21 07:26:49;;;;;;;7.35;2.88;;;;;;;;;;5031915;28;20103;-62
2022/08/21 07:29:16;;;;;;;6.97;2.50;;;;;;;;;;5032159;28;20061;-63
2022/08/21 07:31:42;;;;;;;7.93;2.58;;;;;;;;;;5031943;28;20084;-63
2022/08/21 07:34:09;;;;;;;11.43;2.13;;;;;;;;;;5032134;28;20095;-63
2022/08/21 07:36:35;;;;;;;7.60;1.83;;;;;;;;;;5032129;28;20042;-63
2022/08/21 07:39:02;;;;;;;9.32;2.40;;;;;;;;;;5031828;28;20860;-63
2022/08/21 07:41:29;;;;;;;7.03;1.97;;;;;;;;;;5031930;28;20502;-63
2022/08/21 07:43:57;;;;;;;4.22;1.50;;;;;;;;;;5032315;28;20391;-62
2022/08/21 07:46:24;;;;;;;6.60;1.45;;;;;;;;;;5031920;28;20049;-62
2022/08/21 07:48:51;;;;;;;6.85;1.60;;;;;;;;;;5031874;28;20053;-63
2022/08/21 07:51:20;;;;;;;4.82;1.48;;;;;;;;;;5031631;28;20444;-63
2022/08/21 07:53:48;;;;;;;8.68;1.90;;;;;;;;;;5030163;28;20591;-62
2022/08/21 07:56:14;;;;;;;;;;;;;;;;;;5030709;28;20452;-63
2022/08/21 07:58:41;;;;;;;9.00;1.88;;;;;;;;;;5030396;28;20377;-62
2022/08/21 08:01:07;;;;;;;8.23;1.83;;;;;;;;;;5031274;28;20510;-62
2022/08/21 08:03:34;;;;;;;7.07;1.67;;;;;;;;;;5031317;28;20055;-62
2022/08/21 08:06:00;;;;;;;7.47;1.30;;;;;;;;;;5031344;28;20077;-62
2022/08/21 08:08:27;;;;;;;6.82;1.20;;;;;;;;;;5031389;28;20053;-62
2022/08/21 08:10:55;;;;;;;5.38;1.48;;;;;;;;;;5031518;28;20095;-62
2022/08/21 08:13:22;;;;;;;5.60;1.33;;;;;;;;;;5031244;28;20103;-64
2022/08/21 08:15:48;;;;;;;10.23;1.92;;;;;;;;;;5031335;28;20401;-65
2022/08/21 08:18:15;;;;;;;7.35;1.55;;;;;;;;;;5029722;28;20088;-65
2022/08/21 08:20:41;;;;;;;9.18;2.13;;;;;;;;;;5028044;28;20088;-65
2022/08/21 08:23:12;;;;;;;7.53;1.40;;;;;;;;;;5029260;28;20131;-67
2022/08/21 08:25:38;;;;;;;7.97;1.30;;;;;;;;;;5030656;28;20053;-65
2022/08/21 08:28:05;;;;;;;7.55;1.65;;;;;;;;;;5031033;28;20104;-64
2022/08/21 08:30:42;;;;;;;7.28;1.60;;;;;;;;;;5030888;28;20057;-66
2022/08/21 08:33:09;;;;;;;6.03;1.47;;;;;;;;;;5030750;28;20092;-66
2022/08/21 08:35:36;;;;;;;8.63;1.30;;;;;;;;;;5031005;28;20045;-66
2022/08/21 08:38:05;;;;;;;5.85;1.40;;;;;;;;;;5030941;28;20465;-66
2022/08/21 08:40:33;;;;;;;;;;;;;;;;;;5030056;28;20331;-64
2022/08/21 08:42:59;;;;;;;7.13;1.55;;;;;;;;;;5027641;28;19921;-64
2022/08/21 08:45:28;;;;;;;8.13;1.20;;;;;;;;;;5030800;28;20049;-67
2022/08/21 08:48:02;;;;;;;3.63;1.20;;;;;;;;;;5030120;28;20486;-65
2022/08/21 08:50:28;;;;;;;4.95;1.75;;;;;;;;;;5029421;28;20107;-66
2022/08/21 08:53:01;;;;;;;5.37;1.10;;;;;;;;;;5030393;28;20088;-65
2022/08/21 08:55:36;;;;;;;6.05;1.55;;;;;;;;;;5028771;28;20057;-65
2022/08/21 08:58:03;;;;;;;6.10;1.40;;;;;;;;;;5031110;28;20443;-65
2022/08/21 09:00:30;;;;;;;5.45;1.42;;;;;;;;;;5030235;28;20073;-66
2022/08/21 09:02:58;;;;;;;;;;;;;;;;;;5030412;28;20107;-66
2022/08/21 09:05:30;;;;;;;6.57;1.60;;;;;;;;;;5030584;28;19925;-65
2022/08/21 09:08:00;;;;;;;6.07;1.30;;;;;;;;;;5029444;28;20519;-64
2022/08/21 09:10:33;;;;;;;7.28;1.17;;;;;;;;;;5030499;28;20395;-64
2022/08/21 09:12:59;;;;;;;5.35;1.17;;;;;;;;;;5030141;28;20095;-67
2022/08/21 09:15:32;;;;;;;4.30;1.10;;;;;;;;;;5029885;28;20048;-67
2022/08/21 09:18:01;;;;;;;4.93;1.48;;;;;;;;;;5030270;28;20053;-64
2022/08/21 09:20:38;;;;;;;6.63;1.85;;;;;;;;;;5028161;28;20045;-65
2022/08/21 09:23:22;;;;;;;4.47;1.45;;;;;;;;;;5030966;28;20080;-64
2022/08/21 09:25:55;;;;;;;5.25;1.58;;;;;;;;;;5030016;28;20050;-65
2022/08/21 09:28:22;;;;;;;5.32;2.35;;;;;;;;;;5030799;28;20154;-65
2022/08/21 09:30:49;;;;;;;5.95;1.70;;;;;;;;;;5030716;28;20084;-65
2022/08/21 09:33:17;;;;;;;4.80;1.55;;;;;;;;;;5030774;28;20128;-67
2022/08/21 09:35:53;;;;;;;3.25;1.40;;;;;;;;;;5032138;28;20092;-66
2022/08/21 09:38:20;;;;;;;;;;;;;;;;;;5034895;28;20092;-66
2022/08/21 09:40:47;;;;;;;;;;;;;;;;;;5033334;28;19928;-65
2022/08/21 09:43:13;;;;;;;4.50;1.48;;;;;;;;;;5034106;28;19924;-65
2022/08/21 09:45:41;;;;;;;3.03;1.27;;;;;;;;;;5034169;28;20099;-65
2022/08/21 09:48:29;;;;;;;2.85;0.90;;;;;;;;;;5033118;28;20441;-67
2022/08/21 09:51:05;;;;;;;4.25;1.13;;;;;;;;;;5034203;28;20137;-68
2022/08/21 09:53:33;;;;;;;4.60;1.17;;;;;;;;;;5033686;28;20053;-65
2022/08/21 09:59:00;;;;;;;3.45;1.10;;;;;;;;;;5034086;28;20049;-66
2022/08/21 10:01:27;;;;;;;3.13;1.40;;;;;;;;;;5033776;28;20100;-64
2022/08/21 10:04:07;;;;;;;2.97;1.10;;;;;;;;;;5034091;28;20053;-65
2022/08/21 10:06:34;;;;;;;2.30;1.10;;;;;;;;;;5034328;28;20057;-66
2022/08/21 10:09:04;;;;;;;3.05;1.08;;;;;;;;;;5033925;28;20765;-65
2022/08/21 10:11:31;;;;;;;11.65;1.55;;;;;;;;;;5033755;28;20442;-63
2022/08/21 10:14:12;;;;;;;2.80;1.00;;;;;;;;;;5033968;28;20045;-66
2022/08/21 10:16:39;;;;;;;3.58;1.20;;;;;;;;;;5032461;28;20091;-64
2022/08/21 10:19:25;;;;;;;1.85;1.00;;;;;;;;;;5031287;28;20531;-66
2022/08/21 10:22:00;;;;;;;4.13;0.93;;;;;;;;;;5033338;28;20092;-65
2022/08/21 10:24:37;;;;;;;4.68;1.20;;;;;;;;;;5033638;28;20123;-63
2022/08/21 10:27:04;;;;;;;3.15;1.20;;;;;;;;;;5033301;28;20555;-64
2022/08/21 10:29:49;;;;;;;2.35;1.13;;;;;;;;;;5032906;28;20107;-64
2022/08/21 10:32:29;;;;;;;2.47;0.80;;;;;;;;;;5032476;28;20506;-62
2022/08/21 10:35:03;;;;;;;3.42;1.23;;;;;;;;;;5032746;28;20142;-62
2022/08/21 10:37:30;;;;;;;3.72;1.00;;;;;;;;;;5032837;28;20081;-62
2022/08/21 10:39:56;;;;;;;;;;;;;;;;;;5033450;28;20087;-63
2022/08/21 10:42:35;;;;;;;4.32;1.08;;;;;;;;;;5032971;28;20377;-63
2022/08/21 10:45:01;;;;;;;2.75;1.27;;;;;;;;;;5032828;28;20087;-62
2022/08/21 10:47:27;;;;;;;;;;;;;;;;;;5032414;28;20539;-62
2022/08/21 10:49:54;;;;;;;5.60;1.65;;;;;;;;;;5032924;28;19921;-61
2022/08/21 10:52:30;;;;;;;3.65;1.45;;;;;;;;;;5032549;28;20088;-61
2022/08/21 10:55:03;;;;;;;3.58;1.75;;;;;;;;;;5032515;28;20128;-63
2022/08/21 10:57:46;;;;;;;2.97;1.65;;;;;;;;;;5030236;28;20324;-63
2022/08/21 11:00:15;;;;;;;2.97;1.25;;;;;;;;;;5032113;28;20514;-64
2022/08/21 11:02:42;;;;;;;3.45;1.20;;;;;;;;;;5032440;28;20126;-63
2022/08/21 11:05:08;;;;;;;;;;;;;;;;;;5032543;28;20482;-64
2022/08/21 11:07:55;;;;;;;3.83;1.30;;;;;;;;;;5032282;28;19983;-63
2022/08/21 11:10:27;;;;;;;2.50;1.20;;;;;;;;;;5030733;28;20049;-64
2022/08/21 11:13:02;;;;;;;3.65;1.27;;;;;;;;;;5030717;28;20045;-64
2022/08/21 11:15:34;;;;;;;4.07;1.17;;;;;;;;;;5030916;28;20050;-63
2022/08/21 11:18:07;;;;;;;3.00;1.27;;;;;;;;;;5032395;28;20049;-63
2022/08/21 11:20:33;;;;;;;2.97;1.30;;;;;;;;;;5029132;28;20077;-63
2022/08/21 11:23:24;;;;;;;3.67;1.30;;;;;;;;;;5031024;28;20050;-63
2022/08/21 11:25:57;;;;;;;4.85;1.38;;;;;;;;;;5031442;28;20054;-62
2022/08/21 11:28:26;;;;;;;2.70;1.55;;;;;;;;;;5032167;28;20493;-63
2022/08/21 11:31:16;;;;;;;6.05;1.40;;;;;;;;;;5031524;28;20107;-63
2022/08/21 11:34:00;;;;;;;4.93;1.45;;;;;;;;;;5030834;28;20041;-63
2022/08/21 11:36:35;;;;;;;2.88;1.60;;;;;;;;;;5031423;28;20076;-63
2022/08/21 11:39:02;;;;;;;3.08;1.75;;;;;;;;;;5031890;28;20092;-63
2022/08/21 11:41:28;;;;;;;;;;;;;;;;;;5032570;28;20083;-63
2022/08/21 11:44:03;;;;;;;3.30;1.50;;;;;;;;;;5031940;28;19975;-63
2022/08/21 11:46:36;;;;;;;2.53;1.33;;;;;;;;;;5032020;28;20093;-63
2022/08/21 11:49:31;;;;;;;3.22;1.38;;;;;;;;;;5032050;28;20085;-62
2022/08/21 11:52:16;;;;;;;2.70;1.30;;;;;;;;;;5028787;28;20053;-62
2022/08/21 11:54:54;;;;;;;2.40;1.43;;;;;;;;;;5028915;28;20085;-62
2022/08/21 11:57:26;;;;;;;2.78;1.20;;;;;;;;;;5028415;28;20816;-62
2022/08/21 12:00:02;;;;;;;3.63;1.40;;;;;;;;;;5030228;28;20085;-62
2022/08/21 12:02:31;;;;;;;2.30;1.20;;;;;;;;;;5031486;28;20041;-62
2022/08/21 12:05:08;;;;;;;3.45;1.30;;;;;;;;;;5030647;28;20134;-62
2022/08/21 12:07:37;;;;;;;3.88;1.50;;;;;;;;;;5031924;28;20452;-62
2022/08/21 12:10:05;;;;;;;2.75;1.35;;;;;;;;;;5032081;28;20111;-62
2022/08/21 12:12:36;;;;;;;3.13;1.45;;;;;;;;;;5030740;28;20045;-61
2022/08/21 12:15:07;;;;;;;3.22;1.30;;;;;;;;;;5031988;28;20081;-62
2022/08/21 12:17:38;;;;;;;4.00;1.58;;;;;;;;;;5031509;28;20509;-62
2022/08/21 12:20:22;;;;;;;3.90;1.60;;;;;;;;;;5031960;28;20080;-62
2022/08/21 12:23:07;;;;;;;5.93;1.45;;;;;;;;;;5032075;28;20046;-61
2022/08/21 12:25:40;;;;;;;2.95;1.45;;;;;;;;;;5030635;28;20072;-63
2022/08/21 12:28:12;;;;;;;3.10;1.40;;;;;;;;;;5031922;28;20049;-61
2022/08/21 12:30:40;;;;;;;3.70;1.60;;;;;;;;;;5031503;28;20525;-62
2022/08/21 12:33:19;;;;;;;4.57;1.58;;;;;;;;;;5031507;28;20089;-62
2022/08/21 12:35:49;;;;;;;2.15;1.35;;;;;;;;;;5031713;28;20050;-62
2022/08/21 12:38:18;;;;;;;2.95;1.25;;;;;;;;;;5030748;28;20077;-62
2022/08/21 12:40:51;;;;;;;4.53;1.50;;;;;;;;;;5031065;28;20053;-61
2022/08/21 12:43:24;;;;;;;3.33;1.83;;;;;;;;;;5031900;28;20049;-61
2022/08/21 12:45:51;;;;;;;3.33;1.42;;;;;;;;;;5031721;28;20195;-60
2022/08/21 12:48:29;;;;;;;3.95;1.27;;;;;;;;;;5031347;28;20049;-60
2022/08/21 12:51:16;;;;;;;3.47;1.23;;;;;;;;;;5031339;28;20053;-60
2022/08/21 12:53:42;;;;;;;3.50;1.60;;;;;;;;;;5031293;28;20092;-61
2022/08/21 12:56:10;;;;;;;3.38;1.20;;;;;;;;;;5030920;28;20046;-62
2022/08/21 12:58:40;;;;;;;5.40;1.80;;;;;;;;;;5031583;28;20123;-60
2022/08/21 13:01:12;;;;;;;3.60;1.27;;;;;;;;;;5031159;28;20041;-61
2022/08/21 13:03:40;;;;;;;3.03;1.33;;;;;;;;;;5030887;28;20493;-60
2022/08/21 13:06:08;;;;;;;3.65;1.40;;;;;;;;;;5028922;28;20085;-61
2022/08/21 13:08:36;;;;;;;3.05;1.30;;;;;;;;;;5028156;28;20469;-60
2022/08/21 13:11:09;;;;;;;3.08;1.33;;;;;;;;;;5033489;28;20061;-61
2022/08/21 13:13:41;;;;;;;5.80;1.50;;;;;;;;;;5033546;28;20107;-61
2022/08/21 13:16:19;;;;;;;3.38;1.10;;;;;;;;;;5031656;28;20045;-60
2022/08/21 13:18:58;;;;;;;2.03;1.15;;;;;;;;;;5034466;28;20143;-61
2022/08/21 13:21:54;;;;;;;3.92;1.33;;;;;;;;;;5034884;28;20042;-60
2022/08/21 13:24:33;;;;;;;3.03;1.33;;;;;;;;;;5033944;28;20379;-60
2022/08/21 13:27:20;;;;;;;3.25;1.13;;;;;;;;;;5034509;28;20045;-60
2022/08/21 13:29:47;;;;;;;2.97;1.00;;;;;;;;;;5034541;28;20049;-60
2022/08/21 13:32:23;;;;;;;3.60;1.25;;;;;;;;;;5032198;28;20508;-60
2022/08/21 13:34:50;;;;;;;4.35;1.20;;;;;;;;;;5033776;28;20084;-60
2022/08/21 13:37:21;;;;;;;2.83;1.13;;;;;;;;;;5033672;28;20562;-60
2022/08/21 13:39:49;;;;;;;3.38;1.17;;;;;;;;;;5034030;28;20077;-61
2022/08/21 13:42:15;;;;;;;3.70;1.30;;;;;;;;;;5029300;28;20424;-60
2022/08/21 13:44:43;;;;;;;4.40;1.27;;;;;;;;;;5032996;28;20076;-60
2022/08/21 13:47:11;;;;;;;3.17;1.20;;;;;;;;;;5033853;28;20049;-60
2022/08/21 13:49:47;;;;;;;4.20;1.10;;;;;;;;;;5033623;28;20450;-60
2022/08/21 13:52:15;;;;;;;3.22;1.13;;;;;;;;;;5033127;28;20081;-61
2022/08/21 13:54:44;;;;;;;2.47;1.33;;;;;;;;;;5034329;28;20509;-60
2022/08/21 13:57:18;;;;;;;2.30;1.05;;;;;;;;;;5034458;28;20077;-59
2022/08/21 13:59:45;;;;;;;3.08;1.40;;;;;;;;;;5031881;28;20069;-59
2022/08/21 14:02:19;;;;;;;3.15;1.30;;;;;;;;;;5033666;28;20073;-60
2022/08/21 14:05:00;;;;;;;3.40;1.25;;;;;;;;;;5033759;28;20132;-59
2022/08/21 14:07:36;;;;;;;4.28;1.45;;;;;;;;;;5032467;28;20099;-60
2022/08/21 14:10:06;;;;;;;3.17;1.17;;;;;;;;;;5031800;28;20049;-60
2022/08/21 14:12:54;;;;;;;2.80;1.20;;;;;;;;;;5031092;28;20511;-60
2022/08/21 14:15:28;;;;;;;2.88;1.15;;;;;;;;;;5032391;28;20134;-59
2022/08/21 14:18:06;;;;;;;4.75;1.30;;;;;;;;;;5032287;28;20073;-60
2022/08/21 14:20:33;;;;;;;2.13;1.30;;;;;;;;;;5033773;28;20108;-59
2022/08/21 14:23:00;;;;;;;3.58;1.38;;;;;;;;;;5032463;28;20096;-59
2022/08/21 14:25:29;;;;;;;3.15;1.23;;;;;;;;;;5033801;28;20481;-60
2022/08/21 14:27:58;;;;;;;3.25;1.27;;;;;;;;;;5033893;28;20088;-60
2022/08/21 14:30:29;;;;;;;5.03;1.50;;;;;;;;;;5033885;28;20563;-59
2022/08/21 14:32:56;;;;;;;3.88;1.35;;;;;;;;;;5033695;28;20076;-60
2022/08/21 14:35:23;;;;;;;3.97;1.40;;;;;;;;;;5033885;28;20045;-60
2022/08/21 14:37:50;;;;;;;3.50;1.33;;;;;;;;;;5033880;28;20057;-60
2022/08/21 14:40:17;;;;;;;2.30;1.30;;;;;;;;;;5033826;28;20168;-60
2022/08/21 14:42:44;;;;;;;3.80;2.08;;;;;;;;;;5032692;28;20470;-59
2022/08/21 14:45:15;;;;;;;2.45;1.35;;;;;;;;;;5033442;28;20095;-59
2022/08/21 14:47:43;;;;;;;2.92;1.30;;;;;;;;;;5033692;28;20080;-60
2022/08/21 14:50:10;;;;;;;2.83;1.23;;;;;;;;;;5033641;28;20041;-60
2022/08/21 14:52:37;;;;;;;2.20;1.10;;;;;;;;;;5033378;28;20097;-60
2022/08/21 14:55:04;;;;;;;3.25;1.35;;;;;;;;;;5033299;28;20555;-60
2022/08/21 14:57:31;;;;;;;3.35;1.30;;;;;;;;;;5033089;28;20085;-60
2022/08/21 14:59:59;;;;;;;3.30;1.30;;;;;;;;;;5033466;28;20080;-60
2022/08/21 15:02:27;;;;;;;3.92;1.50;;;;;;;;;;5032977;28;20048;-60